Time;durP1;ratioP1;P1;durP2;ratioP2;P2;SDS_P1;SDS_P2;PMS_P1;PMS_P2;Temp;Humidity;BMP_temperature;BMP_pressure;BME280_temperature;BME280_humidity;BME280_pressure;Samples;Min_cycle;Max_cycle;Signal;HPM_P1;HPM_P2
2022/08/25 00:01:29;;;;;;;1.88;0.65;;;23.40;56.00;;;;;;6192789;28;20054;-73
2022/08/25 00:04:30;;;;;;;0.63;0.52;;;23.40;55.90;;;;;;6195528;28;20535;-74
2022/08/25 00:07:30;;;;;;;0.63;0.60;;;23.40;56.00;;;;;;6172935;28;20105;-73
2022/08/25 00:10:33;;;;;;;0.50;0.50;;;23.40;56.00;;;;;;6181797;28;20217;-74
2022/08/25 00:13:34;;;;;;;0.40;0.40;;;23.40;56.00;;;;;;6195538;28;20018;-73
2022/08/25 00:16:35;;;;;;;0.57;0.57;;;23.40;56.00;;;;;;6178516;28;20477;-73
2022/08/25 00:19:37;;;;;;;0.70;0.52;;;23.40;56.00;;;;;;6173444;28;20030;-74
2022/08/25 00:22:38;;;;;;;0.60;0.60;;;23.40;56.00;;;;;;6194600;28;20026;-73
2022/08/25 00:25:39;;;;;;;0.70;0.70;;;23.40;56.00;;;;;;6186962;28;20097;-74
2022/08/25 00:28:40;;;;;;;0.50;0.50;;;23.40;56.00;;;;;;6190143;28;20523;-73
2022/08/25 00:31:41;;;;;;;0.70;0.63;;;23.40;56.00;;;;;;6179130;28;20505;-74
2022/08/25 00:34:42;;;;;;;1.25;0.80;;;23.40;56.00;;;;;;6172749;28;20033;-73
2022/08/25 00:37:43;;;;;;;1.10;0.70;;;23.40;56.00;;;;;;6193220;28;20038;-74
2022/08/25 00:40:44;;;;;;;0.50;0.50;;;23.40;56.00;;;;;;6188285;28;20030;-74
2022/08/25 00:43:50;;;;;;;2.00;0.70;;;23.40;56.00;;;;;;6170385;28;20551;-74
2022/08/25 00:46:54;;;;;;;0.63;0.60;;;23.40;56.10;;;;;;6185630;28;20543;-73
2022/08/25 00:49:58;;;;;;;0.50;0.50;;;23.40;56.00;;;;;;6195145;28;20041;-74
2022/08/25 00:53:02;;;;;;;0.50;0.50;;;23.40;56.00;;;;;;6171039;28;20201;-73
2022/08/25 00:56:03;;;;;;;0.50;0.50;;;23.40;56.00;;;;;;6177571;28;20018;-73
2022/08/25 00:59:04;;;;;;;0.68;0.60;;;23.40;56.00;;;;;;6194185;28;20326;-74
2022/08/25 01:02:06;;;;;;;0.70;0.70;;;23.40;56.00;;;;;;6182421;28;20030;-73
2022/08/25 01:05:08;;;;;;;0.60;0.60;;;23.40;56.10;;;;;;6169826;28;20035;-73
2022/08/25 01:08:09;;;;;;;0.60;0.60;;;23.40;56.00;;;;;;6192538;28;20538;-74
2022/08/25 01:11:11;;;;;;;0.85;0.47;;;23.40;56.00;;;;;;6187976;28;20038;-74
2022/08/25 01:14:15;;;;;;;0.70;0.70;;;23.40;56.00;;;;;;6170863;28;20023;-74
2022/08/25 01:17:16;;;;;;;0.50;0.50;;;23.40;56.10;;;;;;6184879;28;20101;-73
2022/08/25 01:20:19;;;;;;;0.45;0.40;;;23.40;56.10;;;;;;6195782;28;20026;-74
2022/08/25 01:23:21;;;;;;;0.73;0.70;;;23.40;56.00;;;;;;6172612;28;20027;-73
2022/08/25 01:26:25;;;;;;;0.65;0.65;;;23.40;56.10;;;;;;6174537;28;20062;-74
2022/08/25 01:29:26;;;;;;;0.50;0.50;;;23.40;56.10;;;;;;6169984;28;20023;-74
2022/08/25 01:32:27;;;;;;;0.80;0.63;;;23.40;56.10;;;;;;6183171;28;20057;-74
2022/08/25 01:35:28;;;;;;;0.45;0.45;;;23.40;56.10;;;;;;6192989;28;20023;-74
2022/08/25 01:38:28;;;;;;;0.55;0.55;;;23.40;56.10;;;;;;6175001;28;20508;-74
2022/08/25 01:41:35;;;;;;;1.52;0.63;;;23.40;56.10;;;;;;6174147;28;20018;-73
2022/08/25 01:44:39;;;;;;;0.52;0.52;;;23.40;56.10;;;;;;6192651;28;20038;-74
2022/08/25 01:47:40;;;;;;;0.80;0.60;;;23.40;56.10;;;;;;6180548;28;20031;-74
2022/08/25 01:50:42;;;;;;;0.60;0.60;;;23.40;56.10;;;;;;6169874;28;20042;-73
2022/08/25 01:53:43;;;;;;;1.20;0.80;;;23.40;56.10;;;;;;6190540;28;20029;-73
2022/08/25 01:56:43;;;;;;;1.00;0.70;;;23.40;56.20;;;;;;6189156;28;20023;-72
2022/08/25 01:59:45;;;;;;;0.40;0.40;;;23.40;56.10;;;;;;6169483;28;20089;-73
2022/08/25 02:02:46;;;;;;;0.63;0.63;;;23.40;56.10;;;;;;6181437;28;20098;-74
2022/08/25 02:05:47;;;;;;;0.50;0.50;;;23.40;56.10;;;;;;6193285;28;20031;-74
2022/08/25 02:08:57;;;;;;;0.70;0.60;;;23.40;56.10;;;;;;6173614;28;20124;-74
2022/08/25 02:11:58;;;;;;;0.60;0.60;;;23.40;56.10;;;;;;6173790;28;20499;-74
2022/08/25 02:15:00;;;;;;;0.60;0.60;;;23.40;56.10;;;;;;6193191;28;20109;-74
2022/08/25 02:18:01;;;;;;;0.60;0.60;;;23.40;56.10;;;;;;6181439;28;20124;-74
2022/08/25 02:21:02;;;;;;;0.40;0.40;;;23.40;56.20;;;;;;6169377;28;20071;-74
2022/08/25 02:24:03;;;;;;;0.60;0.60;;;23.40;56.10;;;;;;6188677;28;20226;-73
2022/08/25 02:27:04;;;;;;;0.68;0.68;;;23.40;56.10;;;;;;6189260;28;20505;-73
2022/08/25 02:30:05;;;;;;;1.52;0.55;;;23.40;56.10;;;;;;6193096;28;20029;-73
2022/08/25 02:33:07;;;;;;;0.50;0.50;;;23.40;56.10;;;;;;6181385;28;20054;-73
2022/08/25 02:36:08;;;;;;;0.55;0.55;;;23.40;56.10;;;;;;6168841;28;20069;-73
2022/08/25 02:39:09;;;;;;;0.52;0.50;;;23.40;56.20;;;;;;6187056;28;20030;-74
2022/08/25 02:42:09;;;;;;;0.50;0.50;;;23.40;56.20;;;;;;6191003;28;20026;-73
2022/08/25 02:45:10;;;;;;;0.68;0.65;;;23.40;56.20;;;;;;6168747;28;20513;-73
2022/08/25 02:48:11;;;;;;;0.88;0.68;;;23.40;56.20;;;;;;6184223;28;20034;-73
2022/08/25 02:51:12;;;;;;;0.50;0.50;;;23.40;56.20;;;;;;6196904;28;20133;-73
2022/08/25 02:54:13;;;;;;;0.60;0.60;;;23.40;56.20;;;;;;6179757;28;20022;-74
2022/08/25 02:57:14;;;;;;;0.55;0.55;;;23.40;56.20;;;;;;6173638;28;20031;-74
2022/08/25 03:00:17;;;;;;;0.70;0.65;;;23.40;56.20;;;;;;6200713;28;20081;-74
2022/08/25 03:03:19;;;;;;;0.63;0.63;;;23.40;56.20;;;;;;6190071;28;20023;-74
2022/08/25 03:06:22;;;;;;;0.60;0.60;;;23.40;56.20;;;;;;6173712;28;20033;-74
2022/08/25 03:09:23;;;;;;;0.60;0.60;;;23.40;56.20;;;;;;6189858;28;20037;-74
2022/08/25 03:12:23;;;;;;;0.63;0.63;;;23.40;56.20;;;;;;6197448;28;20563;-74
2022/08/25 03:15:26;;;;;;;0.50;0.50;;;23.40;56.20;;;;;;6175010;28;20031;-73
2022/08/25 03:18:27;;;;;;;0.60;0.60;;;23.40;56.20;;;;;;6180846;28;20077;-74
2022/08/25 03:21:28;;;;;;;0.70;0.70;;;23.40;56.20;;;;;;6196798;28;20484;-73
2022/08/25 03:24:29;;;;;;;0.50;0.50;;;23.40;56.20;;;;;;6180739;28;20031;-73
2022/08/25 03:27:31;;;;;;;0.57;0.57;;;23.40;56.20;;;;;;6182235;28;20054;-74
2022/08/25 03:30:32;;;;;;;0.60;0.60;;;23.40;56.20;;;;;;6174205;28;20042;-74
2022/08/25 03:33:32;;;;;;;0.50;0.50;;;23.40;56.20;;;;;;6177500;28;20116;-72
2022/08/25 03:36:33;;;;;;;1.08;0.70;;;23.40;56.20;;;;;;6195513;28;20022;-73
2022/08/25 03:39:34;;;;;;;0.40;0.40;;;23.40;56.20;;;;;;6182861;28;20392;-73
2022/08/25 03:42:38;;;;;;;0.50;0.50;;;23.40;56.30;;;;;;6171668;28;20395;-73
2022/08/25 03:45:41;;;;;;;0.70;0.65;;;23.40;56.20;;;;;;6193098;28;20042;-74
2022/08/25 03:48:41;;;;;;;0.50;0.50;;;23.40;56.20;;;;;;6190016;28;20053;-74
2022/08/25 03:51:46;;;;;;;0.60;0.60;;;23.40;56.30;;;;;;6171945;28;20059;-74
2022/08/25 03:54:47;;;;;;;0.60;0.60;;;23.40;56.30;;;;;;6183190;28;20476;-74
2022/08/25 03:57:47;;;;;;;1.27;0.60;;;23.40;56.20;;;;;;6194658;28;20274;-73
2022/08/25 04:00:48;;;;;;;0.50;0.50;;;23.40;56.30;;;;;;6177142;28;20026;-73
2022/08/25 04:03:49;;;;;;;0.47;0.47;;;23.40;56.30;;;;;;6175483;28;20061;-73
2022/08/25 04:06:49;;;;;;;0.70;0.60;;;23.40;56.30;;;;;;6194718;28;20036;-73
2022/08/25 04:09:52;;;;;;;0.50;0.50;;;23.40;56.30;;;;;;6183348;28;20027;-73
2022/08/25 04:12:53;;;;;;;0.60;0.60;;;23.40;56.30;;;;;;6171537;28;20033;-73
2022/08/25 04:15:54;;;;;;;0.70;0.60;;;23.40;56.30;;;;;;6205320;28;20418;-73
2022/08/25 04:18:56;;;;;;;0.90;0.60;;;23.40;56.30;;;;;;6192010;28;20031;-74
2022/08/25 04:21:56;;;;;;;0.57;0.57;;;23.40;56.30;;;;;;6143440;28;20134;-73
2022/08/25 04:24:58;;;;;;;0.50;0.50;;;23.40;56.30;;;;;;6119370;29;20040;-73
2022/08/25 04:27:59;;;;;;;0.55;0.55;;;23.40;56.30;;;;;;6119584;29;20293;-73
2022/08/25 04:30:59;;;;;;;0.88;0.70;;;23.40;57.00;;;;;;6119681;29;20043;-73
2022/08/25 04:34:04;;;;;;;0.73;0.70;;;23.40;56.30;;;;;;6117135;29;20065;-74
2022/08/25 04:37:05;;;;;;;0.90;0.60;;;23.40;56.30;;;;;;6120927;29;20072;-74
2022/08/25 04:40:07;;;;;;;0.68;0.60;;;23.40;56.30;;;;;;6120980;29;20036;-74
2022/08/25 04:43:07;;;;;;;0.73;0.70;;;23.40;56.30;;;;;;6121030;29;20109;-74
2022/08/25 04:46:21;;;;;;;0.85;0.70;;;23.40;56.30;;;;;;6119441;29;20040;-74
2022/08/25 04:49:22;;;;;;;0.70;0.70;;;23.40;56.30;;;;;;6119330;29;20102;-73
2022/08/25 04:52:22;;;;;;;0.65;0.65;;;23.40;56.30;;;;;;6128247;29;20043;-73
2022/08/25 04:55:24;;;;;;;0.77;0.77;;;23.40;56.30;;;;;;6142815;29;20067;-74
2022/08/25 04:58:26;;;;;;;0.50;0.50;;;23.40;56.30;;;;;;6144814;28;20027;-74
2022/08/25 05:01:26;;;;;;;0.65;0.65;;;23.40;56.30;;;;;;6156575;28;20038;-73
2022/08/25 05:04:27;;;;;;;0.65;0.65;;;23.40;56.30;;;;;;6195870;28;20130;-73
2022/08/25 05:07:28;;;;;;;0.95;0.70;;;23.40;56.30;;;;;;6194930;28;20061;-73
2022/08/25 05:10:28;;;;;;;0.80;0.70;;;23.40;56.30;;;;;;6186090;28;20114;-74
2022/08/25 05:13:29;;;;;;;0.75;0.60;;;23.40;56.30;;;;;;6141803;28;20126;-75
2022/08/25 05:16:30;;;;;;;0.73;0.63;;;23.40;56.30;;;;;;6160217;28;20552;-74
2022/08/25 05:19:30;;;;;;;0.73;0.65;;;23.40;56.30;;;;;;6168253;28;20022;-74
2022/08/25 05:22:32;;;;;;;0.80;0.63;;;23.40;56.30;;;;;;6167357;28;20039;-73
2022/08/25 05:25:33;;;;;;;0.70;0.70;;;23.40;56.30;;;;;;6163783;28;20480;-73
2022/08/25 05:28:34;;;;;;;0.60;0.60;;;23.40;56.30;;;;;;6149990;28;20650;-73
2022/08/25 05:31:35;;;;;;;0.60;0.60;;;23.40;56.30;;;;;;6142277;28;20058;-75
2022/08/25 05:34:36;;;;;;;0.73;0.70;;;23.40;56.30;;;;;;6167952;28;20031;-73
2022/08/25 05:37:36;;;;;;;0.57;0.57;;;23.40;56.40;;;;;;6145067;28;20620;-73
2022/08/25 05:40:37;;;;;;;0.57;0.57;;;23.40;56.30;;;;;;6149083;28;20054;-73
2022/08/25 05:43:40;;;;;;;0.60;0.60;;;23.40;56.30;;;;;;6167041;28;20517;-73
2022/08/25 05:46:40;;;;;;;1.00;0.90;;;23.40;56.30;;;;;;6183190;28;20030;-73
2022/08/25 05:49:41;;;;;;;0.68;0.65;;;23.40;56.40;;;;;;6165769;28;20043;-73
2022/08/25 05:52:43;;;;;;;0.70;0.70;;;23.40;56.30;;;;;;6164315;28;20145;-73
2022/08/25 05:55:44;;;;;;;0.77;0.63;;;23.40;56.30;;;;;;6165736;28;20023;-74
2022/08/25 05:58:46;;;;;;;1.30;0.77;;;23.40;56.30;;;;;;6166706;28;20399;-73
2022/08/25 06:05:11;;;;;;;0.55;0.55;;;23.40;56.40;;;;;;6169895;28;20038;-74
2022/08/25 06:08:12;;;;;;;0.70;0.70;;;23.40;56.40;;;;;;6170037;28;20077;-74
2022/08/25 06:11:14;;;;;;;0.60;0.60;;;23.40;56.40;;;;;;6169743;28;20030;-73
2022/08/25 06:14:15;;;;;;;0.70;0.70;;;23.40;56.40;;;;;;6170140;28;20038;-74
2022/08/25 06:17:16;;;;;;;0.93;0.75;;;23.40;56.40;;;;;;6161675;28;20023;-74
2022/08/25 06:20:22;;;;;;;0.57;0.57;;;23.40;56.40;;;;;;6176340;28;20038;-74
2022/08/25 06:23:23;;;;;;;0.60;0.60;;;23.40;56.40;;;;;;6199094;28;20504;-74
2022/08/25 06:26:24;;;;;;;0.60;0.60;;;23.40;56.40;;;;;;6194110;28;20026;-73
2022/08/25 06:29:25;;;;;;;0.80;0.80;;;23.40;56.40;;;;;;6200164;28;20057;-74
2022/08/25 06:32:25;;;;;;;0.77;0.63;;;23.40;56.40;;;;;;6195497;28;20108;-74
2022/08/25 06:35:26;;;;;;;0.80;0.70;;;23.40;56.40;;;;;;6200200;28;20035;-74
2022/08/25 06:38:27;;;;;;;0.50;0.50;;;23.40;56.40;;;;;;6199093;28;20050;-74
2022/08/25 06:41:29;;;;;;;0.75;0.70;;;23.40;56.40;;;;;;6195995;28;20014;-74
2022/08/25 06:44:29;;;;;;;0.90;0.73;;;23.40;56.40;;;;;;6178812;28;20388;-74
2022/08/25 06:47:30;;;;;;;0.77;0.70;;;23.40;56.40;;;;;;6189678;28;20073;-74
2022/08/25 06:50:30;;;;;;;1.23;0.70;;;23.40;56.40;;;;;;6186946;28;20518;-74
2022/08/25 06:53:31;;;;;;;0.80;0.75;;;23.40;56.40;;;;;;6180818;28;20027;-74
2022/08/25 06:56:33;;;;;;;0.88;0.80;;;23.40;56.40;;;;;;6193246;28;20026;-74
2022/08/25 06:59:34;;;;;;;1.30;0.80;;;23.40;56.40;;;;;;6177991;28;20035;-74
2022/08/25 07:02:37;;;;;;;0.82;0.80;;;23.40;56.40;;;;;;6189116;28;20037;-74
2022/08/25 07:05:37;;;;;;;0.82;0.82;;;23.40;56.40;;;;;;6185362;28;20045;-74
2022/08/25 07:08:38;;;;;;;0.90;0.70;;;23.40;56.40;;;;;;6181255;28;20034;-73
2022/08/25 07:11:40;;;;;;;1.23;0.70;;;23.40;56.40;;;;;;6190575;28;20757;-74
2022/08/25 07:14:41;;;;;;;1.05;0.70;;;23.40;56.40;;;;;;6198416;28;20038;-74
2022/08/25 07:17:42;;;;;;;0.85;0.70;;;23.40;56.40;;;;;;6191592;28;20046;-74
2022/08/25 07:20:42;;;;;;;0.93;0.77;;;23.40;56.40;;;;;;6178048;28;20577;-74
2022/08/25 07:23:43;;;;;;;0.70;0.70;;;23.40;56.50;;;;;;6191881;28;20018;-74
2022/08/25 07:26:45;;;;;;;0.80;0.80;;;23.40;56.80;;;;;;6198801;28;20385;-74
2022/08/25 07:29:48;;;;;;;0.90;0.80;;;23.40;56.40;;;;;;6175709;28;20027;-73
2022/08/25 07:32:49;;;;;;;14.80;8.10;;;23.40;56.60;;;;;;6188030;28;20047;-75
2022/08/25 07:35:50;;;;;;;6.85;4.30;;;23.40;59.30;;;;;;6181019;28;20022;-75
2022/08/25 07:38:51;;;;;;;5.00;2.72;;;23.40;59.20;;;;;;6182635;28;20031;-75
2022/08/25 07:41:52;;;;;;;16.88;5.43;;;23.40;57.50;;;;;;6184759;28;20500;-74
2022/08/25 07:44:52;;;;;;;13.35;7.45;;;23.40;59.20;;;;;;6181952;28;20049;-75
2022/08/25 07:47:53;;;;;;;8.15;4.88;;;23.30;59.80;;;;;;6188183;28;20389;-74
2022/08/25 07:50:54;;;;;;;11.23;5.45;;;23.30;61.70;;;;;;6198505;28;20781;-74
2022/08/25 07:53:54;;;;;;;13.77;6.72;;;23.30;60.80;;;;;;6186619;28;20418;-74
2022/08/25 07:56:55;;;;;;;12.73;5.45;;;23.30;61.50;;;;;;6186402;28;20527;-74
2022/08/25 07:59:57;;;;;;;7.07;4.95;;;23.40;59.00;;;;;;6190178;28;20054;-75
2022/08/25 08:03:00;;;;;;;6.57;2.97;;;23.40;59.50;;;;;;6191993;28;20045;-74
2022/08/25 08:06:00;;;;;;;4.68;2.80;;;23.40;57.90;;;;;;6174310;28;20035;-75
2022/08/25 08:09:01;;;;;;;5.45;2.90;;;23.40;58.20;;;;;;6188061;28;20029;-74
2022/08/25 08:12:04;;;;;;;4.65;3.10;;;23.40;57.80;;;;;;6197483;28;20037;-74
2022/08/25 08:15:06;;;;;;;4.38;3.35;;;23.40;57.70;;;;;;6198216;28;20030;-75
2022/08/25 08:18:07;;;;;;;5.70;2.70;;;23.40;57.70;;;;;;6192575;28;20391;-74
2022/08/25 08:21:13;;;;;;;4.82;2.85;;;23.40;57.40;;;;;;6176894;28;20105;-74
2022/08/25 08:24:14;;;;;;;5.07;3.03;;;23.40;57.30;;;;;;6183274;28;20436;-74
2022/08/25 08:27:14;;;;;;;18.58;5.43;;;23.40;57.60;;;;;;6173013;28;20026;-73
2022/08/25 08:30:15;;;;;;;7.80;4.00;;;23.40;58.70;;;;;;6194637;28;20384;-74
2022/08/25 08:33:16;;;;;;;7.80;3.53;;;23.40;58.30;;;;;;6193797;28;20047;-74
2022/08/25 08:36:17;;;;;;;9.52;3.85;;;23.40;57.80;;;;;;6185015;28;20109;-73
2022/08/25 08:39:18;;;;;;;4.68;2.80;;;23.40;57.80;;;;;;6188898;28;20135;-74
2022/08/25 08:43:01;;;;;;;6.70;3.28;;;23.40;57.40;;;;;;6182736;28;20105;-74
2022/08/25 08:46:02;;;;;;;4.10;2.72;;;23.40;57.60;;;;;;6167218;28;20049;-75
2022/08/25 08:49:21;;;;;;;4.40;2.83;;;23.40;57.30;;;;;;6181720;28;20053;-73
2022/08/25 08:52:34;;;;;;;5.18;3.10;;;23.40;57.30;;;;;;6190805;28;20038;-73
2022/08/25 08:55:52;;;;;;;5.55;3.47;;;23.40;57.30;;;;;;6193410;28;20110;-74
2022/08/25 08:58:58;;;;;;;5.75;3.03;;;23.40;57.60;;;;;;6184882;28;20149;-74
2022/08/25 09:02:01;;;;;;;4.80;3.10;;;23.40;57.30;;;;;;6197059;28;20026;-74
2022/08/25 09:05:07;;;;;;;6.93;2.90;;;23.40;57.30;;;;;;6184096;28;20066;-74
2022/08/25 09:08:11;;;;;;;5.07;3.28;;;23.40;57.20;;;;;;6186043;28;20528;-73
2022/08/25 09:11:16;;;;;;;3.95;2.95;;;23.40;57.20;;;;;;6174506;28;20019;-73
2022/08/25 09:14:23;;;;;;;3.40;2.80;;;23.40;57.20;;;;;;6193094;28;20033;-75
2022/08/25 09:17:42;;;;;;;4.32;2.92;;;23.40;57.20;;;;;;6196927;28;20061;-74
2022/08/25 09:20:53;;;;;;;5.07;3.10;;;23.40;57.20;;;;;;6196676;28;20047;-74
2022/08/25 09:24:20;;;;;;;4.80;3.17;;;23.40;57.20;;;;;;6193704;28;20428;-74
2022/08/25 09:27:38;;;;;;;4.95;2.72;;;23.40;57.40;;;;;;6171215;28;20026;-74
2022/08/25 09:31:02;;;;;;;4.10;3.10;;;23.40;57.50;;;;;;6187914;28;20041;-74
2022/08/25 09:34:06;;;;;;;3.97;2.90;;;23.40;57.30;;;;;;6202461;28;20058;-74
2022/08/25 09:37:06;;;;;;;4.80;2.80;;;23.40;57.30;;;;;;6195951;28;20022;-74
2022/08/25 09:40:08;;;;;;;3.53;2.83;;;23.40;57.30;;;;;;6188169;28;20023;-74
2022/08/25 09:43:30;;;;;;;4.85;2.90;;;23.40;57.40;;;;;;6179559;28;20029;-74
2022/08/25 09:46:31;;;;;;;4.57;3.20;;;23.40;57.30;;;;;;6175560;28;20035;-73
2022/08/25 09:49:39;;;;;;;4.18;2.60;;;23.40;57.20;;;;;;6186223;28;20249;-74
2022/08/25 09:52:43;;;;;;;3.75;2.70;;;23.40;57.20;;;;;;6175455;28;20497;-74
2022/08/25 09:55:52;;;;;;;4.55;2.92;;;23.40;57.20;;;;;;6187255;28;20042;-74
2022/08/25 09:58:54;;;;;;;3.70;2.92;;;23.40;57.20;;;;;;6176845;28;20446;-74
2022/08/25 10:01:57;;;;;;;3.05;2.75;;;23.40;57.20;;;;;;6198840;28;20022;-75
2022/08/25 10:04:58;;;;;;;2.90;2.20;;;23.40;57.30;;;;;;6195713;28;20033;-76
2022/08/25 10:08:02;;;;;;;4.63;2.97;;;23.40;57.40;;;;;;6181370;28;20492;-75
2022/08/25 10:11:11;;;;;;;3.58;2.72;;;23.40;57.30;;;;;;6188776;28;20030;-74
2022/08/25 10:14:24;;;;;;;3.88;2.92;;;23.40;57.30;;;;;;6196050;28;20391;-74
2022/08/25 10:17:33;;;;;;;3.92;2.75;;;23.40;57.30;;;;;;6177290;28;20065;-74
2022/08/25 10:20:33;;;;;;;5.30;3.20;;;23.40;57.20;;;;;;6179260;28;20093;-74
2022/08/25 10:23:56;;;;;;;3.35;2.60;;;23.40;57.30;;;;;;6188850;28;20100;-74
2022/08/25 10:27:05;;;;;;;3.42;2.50;;;23.40;57.20;;;;;;6182217;28;20536;-74
2022/08/25 10:30:18;;;;;;;3.22;2.67;;;23.40;57.40;;;;;;6175956;28;20030;-74
2022/08/25 10:33:51;;;;;;;5.47;3.42;;;23.40;57.20;;;;;;6200568;28;20485;-74
2022/08/25 10:37:03;;;;;;;3.83;2.80;;;23.40;57.30;;;;;;6176285;28;20038;-74
2022/08/25 10:40:04;;;;;;;3.80;2.63;;;23.40;57.30;;;;;;6192491;28;20108;-74
2022/08/25 10:43:09;;;;;;;3.88;2.90;;;23.40;57.30;;;;;;6177374;28;20031;-74
2022/08/25 10:46:24;;;;;;;3.78;2.47;;;23.40;57.30;;;;;;6177906;28;20129;-73
2022/08/25 10:49:53;;;;;;;3.72;2.60;;;23.40;57.20;;;;;;6186863;28;20045;-74
2022/08/25 10:53:00;;;;;;;2.92;2.40;;;23.40;57.30;;;;;;6197332;28;20061;-74
2022/08/25 10:56:19;;;;;;;3.65;2.47;;;23.40;57.20;;;;;;6191887;28;20098;-74
2022/08/25 10:59:39;;;;;;;3.58;2.60;;;23.40;57.20;;;;;;6168108;28;20035;-75
2022/08/25 11:02:42;;;;;;;2.63;2.30;;;23.40;57.30;;;;;;6166907;28;20023;-75
2022/08/25 11:05:50;;;;;;;3.50;2.28;;;23.40;57.30;;;;;;6172255;28;20030;-74
2022/08/25 11:08:58;;;;;;;4.60;2.50;;;23.40;57.20;;;;;;6193697;28;20081;-74
2022/08/25 11:12:05;;;;;;;2.75;2.33;;;23.40;57.20;;;;;;6187695;28;20038;-74
2022/08/25 11:15:19;;;;;;;2.83;2.20;;;23.40;57.20;;;;;;6199338;28;20077;-74
2022/08/25 11:18:21;;;;;;;3.35;2.53;;;23.40;57.30;;;;;;6177206;28;20019;-73
2022/08/25 11:21:46;;;;;;;2.75;2.40;;;23.40;57.30;;;;;;6182776;28;20109;-74
2022/08/25 11:25:13;;;;;;;2.90;2.42;;;23.40;57.30;;;;;;6198644;28;20126;-74
2022/08/25 11:28:42;;;;;;;2.92;2.20;;;23.40;57.30;;;;;;6179618;28;20027;-74
2022/08/25 11:31:47;;;;;;;2.65;2.38;;;23.40;57.30;;;;;;6188012;28;20375;-75
2022/08/25 11:34:47;;;;;;;3.15;2.17;;;23.40;57.20;;;;;;6179913;28;20026;-74
2022/08/25 11:38:13;;;;;;;3.17;2.53;;;23.40;57.20;;;;;;6190125;28;20524;-74
2022/08/25 11:41:40;;;;;;;3.28;2.30;;;23.40;57.20;;;;;;6196687;28;20110;-74
2022/08/25 11:45:14;;;;;;;2.83;2.08;;;23.40;57.20;;;;;;6174897;28;20039;-75
2022/08/25 11:48:24;;;;;;;2.55;2.00;;;23.40;57.20;;;;;;6193361;28;20468;-74
2022/08/25 11:51:43;;;;;;;2.85;2.40;;;23.40;57.20;;;;;;6198504;28;20089;-74
2022/08/25 11:54:47;;;;;;;2.30;2.00;;;23.40;57.20;;;;;;6177356;28;20027;-74
2022/08/25 11:57:51;;;;;;;2.28;2.05;;;23.40;57.10;;;;;;6186144;28;20031;-75
2022/08/25 12:00:52;;;;;;;2.60;2.20;;;23.40;57.10;;;;;;6200458;28;20145;-74
2022/08/25 12:04:12;;;;;;;2.20;1.83;;;23.30;57.10;;;;;;6176652;28;20037;-74
2022/08/25 12:07:19;;;;;;;2.30;1.90;;;23.40;57.10;;;;;;6188385;28;20058;-75
2022/08/25 12:10:22;;;;;;;2.97;2.08;;;23.40;57.20;;;;;;6180555;28;20019;-75
2022/08/25 12:13:41;;;;;;;2.08;1.88;;;23.40;57.10;;;;;;6184391;28;20030;-74
2022/08/25 12:17:04;;;;;;;2.40;2.20;;;23.40;57.20;;;;;;6184223;28;20034;-75
2022/08/25 12:20:05;;;;;;;2.83;2.10;;;23.40;57.10;;;;;;6178526;28;20074;-74
2022/08/25 12:23:06;;;;;;;2.22;2.00;;;23.40;57.10;;;;;;6186652;28;20027;-74
2022/08/25 12:26:12;;;;;;;1.90;1.70;;;23.40;57.20;;;;;;6197679;28;20031;-74
2022/08/25 12:29:25;;;;;;;1.77;1.63;;;23.40;57.10;;;;;;6177175;28;20492;-74
2022/08/25 12:32:40;;;;;;;2.30;1.80;;;23.40;57.20;;;;;;6187054;28;20082;-74
2022/08/25 12:36:04;;;;;;;2.72;1.90;;;23.40;57.20;;;;;;6178032;28;20014;-74
2022/08/25 12:39:18;;;;;;;2.70;2.05;;;23.40;57.10;;;;;;6179930;28;20031;-75
2022/08/25 12:42:31;;;;;;;2.08;1.70;;;23.30;57.00;;;;;;6251958;27;20117;-75
2022/08/25 12:45:41;;;;;;;2.45;1.90;;;23.40;57.10;;;;;;6238327;28;20032;-75
2022/08/25 12:49:04;;;;;;;2.42;1.90;;;23.30;57.10;;;;;;6236734;28;20436;-75
2022/08/25 12:52:17;;;;;;;1.63;1.52;;;23.40;57.10;;;;;;6236956;28;20380;-75
2022/08/25 12:55:20;;;;;;;2.53;1.73;;;23.40;57.10;;;;;;6237543;28;20018;-75
2022/08/25 12:58:27;;;;;;;5.07;2.30;;;23.40;57.10;;;;;;6237940;28;20075;-75
2022/08/25 13:02:12;;;;;;;6.55;2.90;;;23.40;57.10;;;;;;6238191;28;20033;-77
2022/08/25 13:05:31;;;;;;;6.70;3.63;;;23.50;57.20;;;;;;6237418;28;20479;-75
2022/08/25 13:08:52;;;;;;;6.03;3.88;;;23.50;57.10;;;;;;6306322;28;20036;-74
2022/08/25 13:12:13;;;;;;;8.98;4.50;;;23.60;57.10;;;;;;6236564;28;20118;-75
2022/08/25 13:15:25;;;;;;;7.82;4.50;;;23.60;57.00;;;;;;6235887;28;20030;-75
2022/08/25 13:18:29;;;;;;;6.88;4.53;;;23.60;56.90;;;;;;6237439;28;20352;-74
2022/08/25 13:21:36;;;;;;;7.43;4.68;;;23.60;56.90;;;;;;6249188;28;20106;-75
2022/08/25 13:24:41;;;;;;;10.43;5.82;;;23.60;56.90;;;;;;6237308;28;20029;-75
2022/08/25 13:27:49;;;;;;;12.25;5.78;;;23.70;56.90;;;;;;6248631;28;20032;-74
2022/08/25 13:31:01;;;;;;;12.35;5.95;;;23.70;56.90;;;;;;6300720;28;20055;-75
2022/08/25 13:34:04;;;;;;;12.88;5.60;;;23.70;57.00;;;;;;6234504;28;20017;-75
2022/08/25 13:40:32;;;;;;;9.48;5.15;;;23.60;57.00;;;;;;6235892;28;20057;-74
2022/08/25 13:43:34;;;;;;;11.90;4.85;;;23.60;57.10;;;;;;6247133;28;20045;-75
2022/08/25 13:46:34;;;;;;;9.00;4.90;;;23.60;57.10;;;;;;6235883;28;20028;-75
2022/08/25 13:49:37;;;;;;;11.63;4.97;;;23.60;57.10;;;;;;6236465;28;20113;-74
2022/08/25 13:52:39;;;;;;;7.35;4.68;;;23.60;57.10;;;;;;6237332;28;20018;-74
2022/08/25 13:55:58;;;;;;;7.75;4.35;;;23.60;57.10;;;;;;6234189;28;20082;-76
2022/08/25 13:59:02;;;;;;;10.25;4.63;;;23.50;57.10;;;;;;6224005;27;20557;-75
2022/08/25 14:02:05;;;;;;;7.47;4.00;;;23.50;57.10;;;;;;6219061;28;20037;-75
2022/08/25 14:05:06;;;;;;;5.80;3.92;;;23.50;57.10;;;;;;6227728;28;20030;-74
2022/08/25 14:08:37;;;;;;;7.10;4.55;;;23.50;57.10;;;;;;6219336;28;20022;-74
2022/08/25 14:11:45;;;;;;;9.30;4.30;;;23.50;57.10;;;;;;6218516;28;20030;-75
2022/08/25 14:14:57;;;;;;;5.70;4.22;;;23.50;57.10;;;;;;6287282;28;20074;-74
2022/08/25 14:18:18;;;;;;;7.75;4.10;;;23.50;57.20;;;;;;6229700;28;20029;-75
2022/08/25 14:21:26;;;;;;;6.53;4.05;;;23.50;57.20;;;;;;6230005;28;20144;-75
2022/08/25 14:24:32;;;;;;;6.82;4.20;;;23.50;57.20;;;;;;6217548;28;20020;-75
2022/08/25 14:27:32;;;;;;;6.30;4.00;;;23.50;57.20;;;;;;6230323;28;20029;-75
2022/08/25 14:30:35;;;;;;;11.38;4.95;;;23.50;57.10;;;;;;6227008;28;20091;-75
2022/08/25 14:34:01;;;;;;;13.10;5.32;;;23.60;57.00;;;;;;6230698;28;20129;-75
2022/08/25 14:37:15;;;;;;;;;;;23.60;57.00;;;;;;6228471;28;20083;-75
2022/08/25 14:40:18;;;;;;;13.25;5.05;;;23.60;57.10;;;;;;6218217;28;19925;-75
2022/08/25 14:43:19;;;;;;;7.60;4.55;;;23.60;57.10;;;;;;6229311;28;20361;-75
2022/08/25 14:46:23;;;;;;;10.43;5.13;;;23.60;57.20;;;;;;6218055;28;20086;-75
2022/08/25 14:49:37;;;;;;;10.00;4.18;;;23.60;57.20;;;;;;6229833;28;20021;-75
2022/08/25 14:52:37;;;;;;;7.65;4.40;;;23.60;57.20;;;;;;6229666;28;20037;-75
2022/08/25 14:55:38;;;;;;;8.55;4.45;;;23.50;57.20;;;;;;6218584;28;20457;-75
2022/08/25 14:58:39;;;;;;;12.25;4.15;;;23.50;57.10;;;;;;6218571;28;20037;-75
2022/08/25 15:01:41;;;;;;;6.35;3.80;;;23.50;57.10;;;;;;6218020;28;20410;-75
2022/08/25 15:04:42;;;;;;;5.97;3.90;;;23.50;57.20;;;;;;6218089;28;20071;-75
2022/08/25 15:11:02;;;;;;;5.15;3.50;;;23.50;57.20;;;;;;6217619;28;20471;-74
2022/08/25 15:14:02;;;;;;;9.30;3.70;;;23.50;57.20;;;;;;6211397;28;20025;-75
2022/08/25 15:17:03;;;;;;;7.15;3.88;;;23.50;57.20;;;;;;6229030;28;20067;-74
2022/08/25 15:20:04;;;;;;;4.88;3.40;;;23.50;57.20;;;;;;6299021;28;20503;-74
2022/08/25 15:23:05;;;;;;;8.75;4.28;;;23.50;57.20;;;;;;6215327;28;20026;-75
2022/08/25 15:26:10;;;;;;;4.82;3.38;;;23.50;57.20;;;;;;6217421;28;20071;-75
2022/08/25 15:29:11;;;;;;;5.20;3.30;;;23.50;57.20;;;;;;6217788;28;20033;-75
2022/08/25 15:32:12;;;;;;;5.63;3.80;;;23.50;57.30;;;;;;6217371;28;20022;-75
2022/08/25 15:35:12;;;;;;;5.72;3.60;;;23.50;57.20;;;;;;6217473;28;20618;-76
2022/08/25 15:38:13;;;;;;;8.43;3.63;;;23.50;57.20;;;;;;6217561;28;20025;-74
2022/08/25 15:41:14;;;;;;;4.28;3.33;;;23.50;57.30;;;;;;6216882;28;20098;-74
2022/08/25 15:44:15;;;;;;;4.85;3.40;;;23.50;57.30;;;;;;6228135;28;20030;-74
2022/08/25 15:47:15;;;;;;;4.47;3.30;;;23.50;57.30;;;;;;6226823;28;20143;-75
2022/08/25 15:50:20;;;;;;;5.72;3.22;;;23.50;57.30;;;;;;6226346;28;20030;-75
2022/08/25 15:53:22;;;;;;;5.72;3.53;;;23.50;57.30;;;;;;6217211;28;20036;-74
2022/08/25 15:56:23;;;;;;;6.90;3.47;;;23.50;57.30;;;;;;6217352;28;20506;-75
2022/08/25 15:59:24;;;;;;;5.00;3.00;;;23.50;57.30;;;;;;6217503;28;20018;-75
2022/08/25 16:02:25;;;;;;;5.30;3.33;;;23.50;57.20;;;;;;6228200;28;20072;-75
2022/08/25 16:05:26;;;;;;;5.97;3.40;;;23.50;57.30;;;;;;6217805;28;20460;-74
2022/08/25 16:08:27;;;;;;;5.25;3.28;;;23.50;57.30;;;;;;6227012;28;20026;-74
2022/08/25 16:11:30;;;;;;;4.68;3.05;;;23.50;57.30;;;;;;6216745;28;20105;-75